createdAt,value
2022-09-14T00:00:09.815Z,17.44
2022-09-14T00:02:37.546Z,17.39
2022-09-14T00:05:07.429Z,17.33
2022-09-14T00:07:35.043Z,17.38
2022-09-14T00:10:02.690Z,17.40
2022-09-14T00:12:30.273Z,17.39
2022-09-14T00:14:57.806Z,17.42
2022-09-14T00:17:25.367Z,17.37
2022-09-14T00:19:53.272Z,17.32
2022-09-14T00:22:22.220Z,17.37
2022-09-14T00:24:50.366Z,17.35
2022-09-14T00:27:17.925Z,17.36
2022-09-14T00:29:48.451Z,17.40
2022-09-14T00:32:16.133Z,17.48
2022-09-14T00:34:43.760Z,17.48
2022-09-14T00:37:12.068Z,17.39
2022-09-14T00:39:41.289Z,17.31
2022-09-14T00:42:09.159Z,17.40
2022-09-14T00:45:00.950Z,17.33
2022-09-14T00:47:29.574Z,17.28
2022-09-14T00:49:57.147Z,17.24
2022-09-14T00:52:26.684Z,17.31
2022-09-14T00:54:57.499Z,17.25
2022-09-14T00:57:26.513Z,17.29
2022-09-14T00:59:54.647Z,17.18
2022-09-14T01:02:23.566Z,17.23
2022-09-14T01:04:51.805Z,17.20
2022-09-14T01:07:28.922Z,17.21
2022-09-14T01:10:10.094Z,17.20
2022-09-14T01:12:44.486Z,17.17
2022-09-14T01:15:18.642Z,17.10
2022-09-14T01:17:50.933Z,17.04
2022-09-14T01:20:25.634Z,17.09
2022-09-14T01:23:01.433Z,17.15
2022-09-14T01:25:59.879Z,17.10
2022-09-14T01:28:33.176Z,17.15
2022-09-14T01:31:04.316Z,17.11
2022-09-14T01:33:35.415Z,16.99
2022-09-14T01:36:04.824Z,16.94
2022-09-14T01:38:34.362Z,16.87
2022-09-14T01:41:04.816Z,16.86
2022-09-14T01:43:36.963Z,16.89
2022-09-14T01:46:07.447Z,16.86
2022-09-14T01:48:38.798Z,16.86
2022-09-14T01:51:11.063Z,16.79
2022-09-14T01:53:41.262Z,16.79
2022-09-14T01:56:15.167Z,16.74
2022-09-14T01:58:47.104Z,16.72
2022-09-14T02:01:17.478Z,16.73
2022-09-14T02:03:48.201Z,16.68
2022-09-14T02:06:19.580Z,16.66
2022-09-14T02:08:47.279Z,16.73
2022-09-14T02:11:14.832Z,16.71
2022-09-14T02:13:43.797Z,16.82
2022-09-14T02:16:11.798Z,16.61
2022-09-14T02:18:39.755Z,16.62
2022-09-14T02:21:10.346Z,16.64
2022-09-14T02:23:37.960Z,16.70
2022-09-14T02:26:05.777Z,16.67
2022-09-14T02:28:33.311Z,16.66
2022-09-14T02:31:08.542Z,16.63
2022-09-14T02:33:41.956Z,16.64
2022-09-14T02:36:16.137Z,16.72
2022-09-14T02:38:47.847Z,16.81
2022-09-14T02:41:19.495Z,16.80
2022-09-14T02:43:50.632Z,16.80
2022-09-14T02:46:26.663Z,16.87
2022-09-14T02:48:59.635Z,16.94
2022-09-14T02:51:30.182Z,16.86
2022-09-14T02:54:01.701Z,16.87
2022-09-14T02:56:29.659Z,16.84
2022-09-14T02:58:57.321Z,16.82
2022-09-14T03:01:26.555Z,16.77
2022-09-14T03:03:54.172Z,16.78
2022-09-14T03:06:21.980Z,16.76
2022-09-14T03:08:50.155Z,16.73
2022-09-14T03:11:17.860Z,16.82
2022-09-14T03:13:45.434Z,16.85
2022-09-14T03:16:14.342Z,16.88
2022-09-14T03:18:43.528Z,16.90
2022-09-14T03:21:13.391Z,16.81
2022-09-14T03:23:42.616Z,16.82
2022-09-14T03:26:11.154Z,16.82
2022-09-14T03:28:38.998Z,16.78
2022-09-14T03:31:09.762Z,16.73
2022-09-14T03:33:37.901Z,16.72
2022-09-14T03:36:13.413Z,16.74
2022-09-14T03:38:44.425Z,16.69
2022-09-14T03:41:12.829Z,16.56
2022-09-14T03:43:40.685Z,16.60
2022-09-14T03:46:08.985Z,16.59
2022-09-14T03:48:36.815Z,16.52
2022-09-14T03:51:06.082Z,16.50
2022-09-14T03:53:35.486Z,16.43
2022-09-14T03:56:07.826Z,16.48
2022-09-14T03:58:35.417Z,16.49
2022-09-14T04:01:07.036Z,16.41
2022-09-14T04:03:35.331Z,16.46
2022-09-14T04:06:05.273Z,16.44
2022-09-14T04:08:33.406Z,16.53
2022-09-14T04:11:07.849Z,16.49
2022-09-14T04:13:35.442Z,16.46
2022-09-14T04:16:03.375Z,16.51
2022-09-14T04:18:31.719Z,16.51
2022-09-14T04:21:04.508Z,16.57
2022-09-14T04:23:46.253Z,16.48
2022-09-14T04:26:21.419Z,16.50
2022-09-14T04:28:49.031Z,16.39
2022-09-14T04:31:16.670Z,16.48
2022-09-14T04:33:45.125Z,16.46
2022-09-14T04:36:14.570Z,16.45
2022-09-14T04:38:43.479Z,16.54
2022-09-14T04:41:12.989Z,16.55
2022-09-14T04:43:42.583Z,16.48
2022-09-14T04:46:12.815Z,16.53
2022-09-14T04:48:40.621Z,16.46
2022-09-14T04:51:10.697Z,16.44
2022-09-14T04:53:39.433Z,16.43
2022-09-14T04:56:08.349Z,16.44
2022-09-14T04:58:39.286Z,16.41
2022-09-14T05:01:09.447Z,16.41
2022-09-14T05:03:38.838Z,16.46
2022-09-14T05:06:08.131Z,16.38
2022-09-14T05:08:36.544Z,16.47
2022-09-14T05:11:04.185Z,16.45
2022-09-14T05:13:31.786Z,16.47
2022-09-14T05:16:08.204Z,16.45
2022-09-14T05:18:35.824Z,16.50
2022-09-14T05:21:08.287Z,16.50
2022-09-14T05:23:36.256Z,16.48
2022-09-14T05:26:05.222Z,16.54
2022-09-14T05:28:33.819Z,16.47
2022-09-14T05:31:05.295Z,16.49
2022-09-14T05:33:32.945Z,16.43
2022-09-14T05:38:30.727Z,16.40
2022-09-14T05:40:58.805Z,16.51
2022-09-14T05:43:26.724Z,16.47
2022-09-14T05:45:54.330Z,16.28
2022-09-14T05:48:22.162Z,16.51
2022-09-14T05:53:23.991Z,16.48
2022-09-14T05:56:01.912Z,16.51
2022-09-14T05:58:29.458Z,16.51
2022-09-14T06:00:57.315Z,16.56
2022-09-14T06:03:25.249Z,16.51
2022-09-14T06:05:54.775Z,16.45
2022-09-14T06:08:23.151Z,16.54
2022-09-14T06:10:50.700Z,16.48
2022-09-14T06:13:19.580Z,16.54
2022-09-14T06:15:47.114Z,16.52
2022-09-14T06:18:14.658Z,16.53
2022-09-14T06:20:50.754Z,16.59
2022-09-14T06:23:18.538Z,16.60
2022-09-14T06:25:46.162Z,16.63
2022-09-14T06:28:13.901Z,16.56
2022-09-14T06:30:45.172Z,16.67
2022-09-14T06:33:12.779Z,16.70
2022-09-14T06:35:42.008Z,16.77
2022-09-14T06:38:09.751Z,16.81
2022-09-14T06:40:37.365Z,16.87
2022-09-14T06:43:04.943Z,16.67
2022-09-14T06:45:33.077Z,16.97
2022-09-14T06:48:02.293Z,16.98
2022-09-14T06:50:29.802Z,17.02
2022-09-14T06:52:57.448Z,16.86
2022-09-14T06:55:25.092Z,17.06
2022-09-14T07:00:27.592Z,17.10
2022-09-14T07:02:55.891Z,17.19
2022-09-14T07:05:24.876Z,17.27
2022-09-14T07:07:53.341Z,17.26
2022-09-14T07:10:20.955Z,17.29
2022-09-14T07:12:48.669Z,17.35
2022-09-14T07:15:16.398Z,17.46
2022-09-14T07:17:45.784Z,17.57
2022-09-14T07:20:13.752Z,17.46
2022-09-14T07:22:42.890Z,17.59
2022-09-14T07:25:09.955Z,17.82
2022-09-14T07:27:38.655Z,17.83
2022-09-14T07:35:07.955Z,17.91
2022-09-14T07:37:36.862Z,17.81
2022-09-14T07:40:06.726Z,17.89
2022-09-14T07:42:34.388Z,17.94
2022-09-14T07:45:02.000Z,17.98
2022-09-14T07:47:29.729Z,17.82
2022-09-14T07:49:57.368Z,17.82
2022-09-14T07:52:25.147Z,17.73
2022-09-14T07:54:52.978Z,17.82
2022-09-14T07:57:39.363Z,17.82
2022-09-14T08:02:44.418Z,17.70
2022-09-14T08:05:12.618Z,17.76
2022-09-14T08:07:40.266Z,17.90
2022-09-14T08:10:09.174Z,17.85
2022-09-14T08:12:38.224Z,17.90
2022-09-14T08:15:07.058Z,17.93
2022-09-14T08:17:34.582Z,17.94
2022-09-14T08:20:08.298Z,17.97
2022-09-14T08:22:39.018Z,18.01
2022-09-14T08:25:07.912Z,18.09
2022-09-14T08:27:35.548Z,18.22
2022-09-14T08:30:05.241Z,18.31
2022-09-14T08:32:32.927Z,18.35
2022-09-14T08:35:03.100Z,18.36
2022-09-14T08:37:31.005Z,18.38
2022-09-14T08:39:59.073Z,18.40
2022-09-14T08:42:26.996Z,18.45
2022-09-14T08:44:57.706Z,18.45
2022-09-14T08:47:29.059Z,18.47
2022-09-14T08:50:00.874Z,18.46
2022-09-14T08:52:33.683Z,18.47
2022-09-14T08:55:02.929Z,18.59
2022-09-14T08:57:38.526Z,18.53
2022-09-14T09:00:10.326Z,18.58
2022-09-14T09:03:05.156Z,18.58
2022-09-14T09:05:39.195Z,18.58
2022-09-14T09:08:15.648Z,18.60
2022-09-14T09:10:43.429Z,18.56
2022-09-14T09:13:13.661Z,18.56
2022-09-14T09:15:45.844Z,18.58
2022-09-14T09:18:17.328Z,18.57
2022-09-14T09:20:47.620Z,18.60
2022-09-14T09:23:16.688Z,18.69
2022-09-14T09:25:52.882Z,18.74
2022-09-14T09:28:23.716Z,18.87
2022-09-14T09:30:51.845Z,19.04
2022-09-14T09:33:22.697Z,19.15
2022-09-14T09:35:50.455Z,19.13
2022-09-14T09:38:20.017Z,19.11
2022-09-14T09:40:51.608Z,19.12
2022-09-14T09:43:33.613Z,19.04
2022-09-14T09:46:08.756Z,19.07
2022-09-14T09:48:44.109Z,19.17
2022-09-14T09:51:13.705Z,19.18
2022-09-14T09:53:47.889Z,19.20
2022-09-14T09:56:19.468Z,19.18
2022-09-14T09:58:51.458Z,18.99
2022-09-14T10:01:21.178Z,19.07
2022-09-14T10:04:03.899Z,19.11
2022-09-14T10:06:32.250Z,19.26
2022-09-14T10:08:59.833Z,19.32
2022-09-14T10:11:33.874Z,19.47
2022-09-14T10:14:02.641Z,19.51
2022-09-14T10:16:35.979Z,19.56
2022-09-14T10:19:05.200Z,19.56
2022-09-14T10:21:32.788Z,19.52
2022-09-14T10:24:07.254Z,19.65
2022-09-14T10:26:36.832Z,19.71
2022-09-14T10:29:27.231Z,19.82
2022-09-14T10:31:57.621Z,19.94
2022-09-14T10:34:29.701Z,19.89
2022-09-14T10:37:06.223Z,19.99
2022-09-14T10:39:40.778Z,20.15
2022-09-14T10:42:13.512Z,20.08
2022-09-14T10:44:48.698Z,20.12
2022-09-14T10:47:26.925Z,20.28
2022-09-14T10:50:07.314Z,20.30
2022-09-14T10:52:43.584Z,20.47
2022-09-14T10:55:24.229Z,20.51
2022-09-14T10:57:58.025Z,20.47
2022-09-14T11:00:25.775Z,20.47
2022-09-14T11:03:11.895Z,20.58
2022-09-14T11:05:46.393Z,20.51
2022-09-14T11:08:21.978Z,20.51
2022-09-14T11:11:01.548Z,20.53
2022-09-14T11:13:43.342Z,20.61
2022-09-14T11:16:23.334Z,20.79
2022-09-14T11:19:00.440Z,20.82
2022-09-14T11:21:35.909Z,20.84
2022-09-14T11:24:11.673Z,20.88
2022-09-14T11:26:42.613Z,21.02
2022-09-14T11:29:17.753Z,21.12
2022-09-14T11:32:10.122Z,21.16
2022-09-14T11:34:42.523Z,21.17
2022-09-14T11:37:16.165Z,21.06
2022-09-14T11:39:47.517Z,21.04
2022-09-14T11:42:19.032Z,20.94
2022-09-14T11:44:47.209Z,20.94
2022-09-14T11:47:18.023Z,20.95
2022-09-14T11:49:55.065Z,21.06
2022-09-14T11:52:25.334Z,21.06
2022-09-14T11:54:53.379Z,21.11
2022-09-14T11:57:22.710Z,21.15
2022-09-14T11:59:53.247Z,21.27
2022-09-14T12:02:59.293Z,21.32
2022-09-14T12:05:37.231Z,21.36
2022-09-14T12:08:05.340Z,21.33
2022-09-14T12:10:35.655Z,21.51
2022-09-14T12:13:23.444Z,21.42
2022-09-14T12:16:02.693Z,21.26
2022-09-14T12:18:32.228Z,21.34
2022-09-14T12:23:27.340Z,21.32
2022-09-14T12:25:58.234Z,21.28
2022-09-14T12:28:50.121Z,21.19
2022-09-14T12:31:20.297Z,21.25
2022-09-14T12:34:15.343Z,21.19
2022-09-14T12:39:34.923Z,21.37
2022-09-14T12:44:34.875Z,21.23
2022-09-14T12:49:32.377Z,21.19
2022-09-14T12:52:02.274Z,21.20
2022-09-14T12:54:32.442Z,21.21
2022-09-14T12:59:50.234Z,21.13
2022-09-14T13:04:45.203Z,21.11
2022-09-14T13:07:15.432Z,21.11
2022-09-14T13:14:59.408Z,21.19
2022-09-14T13:17:29.490Z,21.07
2022-09-14T13:20:02.533Z,21.09
2022-09-14T13:22:32.292Z,21.08
2022-09-14T13:25:01.294Z,21.06
2022-09-14T13:27:33.572Z,21.17
2022-09-14T13:30:03.522Z,21.16
2022-09-14T13:32:32.059Z,21.19
2022-09-14T13:35:07.557Z,21.22
2022-09-14T13:37:35.186Z,21.28
2022-09-14T13:40:03.149Z,21.32
2022-09-14T13:42:31.406Z,21.35
2022-09-14T13:44:59.249Z,21.41
2022-09-14T13:47:27.079Z,21.46
2022-09-14T13:49:55.389Z,21.59
2022-09-14T13:52:59.914Z,21.56
2022-09-14T13:55:26.243Z,21.60
2022-09-14T13:58:17.988Z,21.52
2022-09-14T14:00:51.939Z,21.59
2022-09-14T14:03:29.879Z,21.63
2022-09-14T14:05:57.922Z,21.66
2022-09-14T14:08:33.506Z,21.64
2022-09-14T14:11:02.843Z,21.65
2022-09-14T14:13:32.957Z,21.50
2022-09-14T14:16:18.717Z,21.31
2022-09-14T14:18:48.659Z,21.46
2022-09-14T14:24:12.296Z,21.40
2022-09-14T14:26:39.425Z,21.38
2022-09-14T14:29:10.975Z,21.34
2022-09-14T14:31:39.261Z,21.36
2022-09-14T14:34:18.548Z,21.34
2022-09-14T14:36:48.492Z,21.37
2022-09-14T14:44:13.385Z,21.39
2022-09-14T14:49:10.343Z,21.49
2022-09-14T14:51:42.986Z,21.49
2022-09-14T14:54:14.544Z,21.53
2022-09-14T14:56:46.829Z,21.74
2022-09-14T15:02:23.554Z,21.73
2022-09-14T15:07:20.790Z,21.76
2022-09-14T15:09:49.587Z,21.81
2022-09-14T15:12:20.302Z,21.75
2022-09-14T15:14:56.491Z,21.72
2022-09-14T15:20:13.944Z,21.69
2022-09-14T15:25:09.663Z,21.63
2022-09-14T15:36:05.656Z,21.37
2022-09-14T15:38:56.608Z,21.10
2022-09-14T15:44:16.578Z,21.19
2022-09-14T15:51:51.533Z,21.18
2022-09-14T16:04:24.445Z,21.06
2022-09-14T16:09:21.478Z,21.00
2022-09-14T16:11:52.120Z,21.00
2022-09-14T16:19:34.567Z,20.98
2022-09-14T16:22:04.465Z,20.84
2022-09-14T16:24:34.615Z,20.83
2022-09-14T16:27:02.937Z,20.81
2022-09-14T16:29:32.111Z,20.83
2022-09-14T16:32:00.146Z,20.70
2022-09-14T16:37:01.622Z,20.26
2022-09-14T16:42:20.313Z,19.76
2022-09-14T16:44:48.439Z,19.52
2022-09-14T16:49:42.550Z,19.11
2022-09-14T16:54:36.559Z,18.92
2022-09-14T16:59:33.496Z,18.86
2022-09-14T17:02:02.513Z,18.90
2022-09-14T17:04:30.196Z,18.77
2022-09-14T17:06:57.750Z,18.70
2022-09-14T17:09:26.991Z,18.57
2022-09-14T17:11:55.300Z,18.47
2022-09-14T17:16:50.503Z,18.44
2022-09-14T17:19:19.861Z,18.43
2022-09-14T17:21:48.445Z,18.40
2022-09-14T17:24:18.815Z,18.42
2022-09-14T17:26:46.850Z,18.39
2022-09-14T17:29:15.155Z,18.36
2022-09-14T17:31:44.345Z,18.39
2022-09-14T17:34:13.611Z,18.37
2022-09-14T17:36:42.550Z,18.32
2022-09-14T17:39:12.719Z,18.32
2022-09-14T17:44:09.499Z,18.31
2022-09-14T17:46:44.421Z,18.04
2022-09-14T17:49:16.269Z,18.21
2022-09-14T17:51:45.293Z,18.16
2022-09-14T17:54:13.679Z,18.25
2022-09-14T17:56:41.554Z,18.16
2022-09-14T17:59:12.356Z,18.08
2022-09-14T18:01:40.102Z,18.00
2022-09-14T18:04:09.765Z,17.92
2022-09-14T18:06:39.425Z,17.98
2022-09-14T18:09:10.744Z,18.10
2022-09-14T18:14:07.036Z,17.84
2022-09-14T18:16:35.480Z,17.75
2022-09-14T18:19:03.078Z,17.77
2022-09-14T18:21:30.663Z,17.79
2022-09-14T18:23:58.354Z,17.77
2022-09-14T18:26:27.230Z,17.73
2022-09-14T18:28:56.067Z,17.70
2022-09-14T18:31:24.297Z,17.64
2022-09-14T18:33:53.320Z,17.58
2022-09-14T18:36:21.763Z,17.59
2022-09-14T18:38:51.321Z,17.81
2022-09-14T18:41:21.658Z,17.46
2022-09-14T18:43:52.132Z,17.71
2022-09-14T18:46:21.699Z,17.60
2022-09-14T18:48:52.573Z,17.64
2022-09-14T18:51:20.295Z,17.62
2022-09-14T18:53:48.561Z,17.57
2022-09-14T18:56:17.919Z,17.55
2022-09-14T18:58:48.803Z,17.52
2022-09-14T19:01:17.981Z,17.57
2022-09-14T19:03:46.089Z,17.45
2022-09-14T19:06:15.262Z,17.51
2022-09-14T19:08:43.527Z,17.40
2022-09-14T19:11:12.215Z,17.31
2022-09-14T19:13:39.872Z,17.27
2022-09-14T19:16:08.468Z,17.29
2022-09-14T19:18:37.869Z,17.26
2022-09-14T19:23:33.277Z,17.22
2022-09-14T19:26:04.399Z,17.23
2022-09-14T19:28:32.825Z,17.03
2022-09-14T19:31:00.577Z,17.11
2022-09-14T19:33:28.148Z,17.18
2022-09-14T19:35:57.070Z,17.02
2022-09-14T19:38:24.677Z,17.11
2022-09-14T19:40:53.172Z,17.10
2022-09-14T19:43:20.824Z,17.09
2022-09-14T19:45:48.862Z,17.17
2022-09-14T19:48:16.458Z,17.13
2022-09-14T19:50:44.079Z,17.16
2022-09-14T19:53:13.231Z,17.00
2022-09-14T19:55:40.795Z,17.07
2022-09-14T19:58:08.401Z,17.08
2022-09-14T20:00:36.366Z,17.06
2022-09-14T20:03:03.997Z,17.03
2022-09-14T20:05:31.652Z,17.00
2022-09-14T20:07:59.192Z,16.94
2022-09-14T20:10:28.085Z,17.02
2022-09-14T20:12:55.597Z,16.94
2022-09-14T20:15:23.157Z,16.89
2022-09-14T20:17:54.793Z,16.89
2022-09-14T20:20:22.316Z,16.94
2022-09-14T20:22:50.324Z,16.95
2022-09-14T20:25:17.929Z,16.93
2022-09-14T20:27:47.679Z,16.96
2022-09-14T20:30:15.314Z,16.89
2022-09-14T20:32:42.863Z,16.93
2022-09-14T20:35:10.637Z,16.95
2022-09-14T20:37:38.244Z,16.95
2022-09-14T20:40:06.903Z,16.95
2022-09-14T20:42:34.531Z,16.92
2022-09-14T20:45:03.770Z,17.00
2022-09-14T20:47:31.316Z,16.97
2022-09-14T20:49:58.861Z,17.02
2022-09-14T20:52:26.385Z,16.97
2022-09-14T20:54:54.100Z,16.99
2022-09-14T20:57:21.778Z,16.94
2022-09-14T20:59:49.323Z,16.85
2022-09-14T21:02:18.275Z,16.95
2022-09-14T21:04:45.928Z,16.90
2022-09-14T21:07:13.429Z,17.04
2022-09-14T21:09:40.958Z,16.88
2022-09-14T21:12:11.601Z,16.90
2022-09-14T21:14:39.107Z,16.82
2022-09-14T21:17:06.787Z,16.78
2022-09-14T21:19:36.015Z,16.81
2022-09-14T21:22:03.625Z,16.79
2022-09-14T21:24:31.699Z,16.84
2022-09-14T21:26:59.280Z,16.83
2022-09-14T21:29:26.912Z,16.82
2022-09-14T21:31:54.521Z,16.81
2022-09-14T21:34:22.489Z,16.79
2022-09-14T21:36:52.739Z,16.81
2022-09-14T21:39:22.956Z,16.78
2022-09-14T21:41:55.723Z,16.77
2022-09-14T21:44:29.782Z,16.76
2022-09-14T21:46:57.443Z,16.76
2022-09-14T21:49:24.998Z,16.77
2022-09-14T21:51:54.136Z,16.78
2022-09-14T21:54:22.167Z,16.77
2022-09-14T21:56:50.126Z,16.77
2022-09-14T21:59:19.352Z,16.74
2022-09-14T22:01:47.847Z,16.77
2022-09-14T22:04:17.770Z,16.76
2022-09-14T22:06:51.157Z,16.76
2022-09-14T22:09:21.730Z,16.64
2022-09-14T22:11:49.292Z,16.79
2022-09-14T22:14:18.803Z,16.79
2022-09-14T22:16:47.177Z,16.75
2022-09-14T22:19:16.589Z,16.74
2022-09-14T22:21:44.550Z,16.73
2022-09-14T22:24:14.545Z,16.73
2022-09-14T22:26:43.593Z,16.71
2022-09-14T22:29:12.790Z,16.70
2022-09-14T22:31:41.697Z,16.67
2022-09-14T22:34:09.765Z,16.62
2022-09-14T22:36:37.566Z,16.70
2022-09-14T22:39:05.901Z,16.66
2022-09-14T22:41:33.587Z,16.72
2022-09-14T22:44:03.617Z,16.72
2022-09-14T22:46:31.598Z,16.70
2022-09-14T22:48:59.391Z,16.72
2022-09-14T22:51:28.534Z,16.71
2022-09-14T22:53:56.662Z,16.71
2022-09-14T22:56:25.835Z,16.70
2022-09-14T22:58:53.970Z,16.69
2022-09-14T23:01:24.755Z,16.73
2022-09-14T23:03:57.027Z,16.74
2022-09-14T23:06:27.079Z,16.71
2022-09-14T23:08:54.586Z,16.70
2022-09-14T23:11:22.158Z,16.76
2022-09-14T23:13:50.077Z,16.75
2022-09-14T23:16:19.619Z,16.74
2022-09-14T23:18:52.539Z,16.73
2022-09-14T23:21:20.700Z,16.78
2022-09-14T23:23:51.764Z,16.78
2022-09-14T23:26:19.323Z,16.80
2022-09-14T23:28:51.918Z,16.74
2022-09-14T23:31:19.649Z,16.77
2022-09-14T23:33:50.300Z,16.77
2022-09-14T23:36:19.567Z,16.76
2022-09-14T23:38:48.024Z,16.79
2022-09-14T23:41:15.642Z,16.70
2022-09-14T23:43:43.532Z,16.76
2022-09-14T23:46:11.185Z,16.77
2022-09-14T23:48:38.835Z,16.81
2022-09-14T23:51:08.696Z,16.81
2022-09-14T23:53:38.199Z,16.81
2022-09-14T23:56:06.532Z,16.78
2022-09-14T23:58:34.215Z,16.79
